Time;durP1;ratioP1;P1;durP2;ratioP2;P2;SDS_P1;SDS_P2;PMS_P1;PMS_P2;Temp;Humidity;BMP_temperature;BMP_pressure;BME280_temperature;BME280_humidity;BME280_pressure;Samples;Min_cycle;Max_cycle;Signal;HPM_P1;HPM_P2
2022/12/03 14:15:25;;;;;;;12.95;11.93;;;;;;;;;;5134251;27;20426;-93
2022/12/03 14:17:51;;;;;;;7.45;6.97;;;;;;;;;;5090896;28;20052;-93
2022/12/03 14:20:18;;;;;;;10.45;9.55;;;;;;;;;;5091260;28;20048;-94
2022/12/03 14:22:44;;;;;;;8.32;7.68;;;;;;;;;;5090799;28;20040;-94
2022/12/03 14:25:11;;;;;;;6.75;6.25;;;;;;;;;;5091344;28;20052;-94
2022/12/03 14:27:38;;;;;;;11.85;11.07;;;;;;;;;;5090915;28;20502;-93
2022/12/03 14:30:05;;;;;;;8.77;8.15;;;;;;;;;;5090815;28;20048;-94
2022/12/03 14:32:33;;;;;;;8.57;7.97;;;;;;;;;;5091209;28;20063;-94
2022/12/03 14:34:59;;;;;;;12.55;11.45;;;;;;;;;;5090719;28;20094;-93
2022/12/03 14:37:26;;;;;;;9.27;8.35;;;;;;;;;;5091041;28;20044;-94
2022/12/03 14:39:52;;;;;;;14.75;13.60;;;;;;;;;;5091493;28;20055;-96
2022/12/03 14:42:19;;;;;;;9.77;9.30;;;;;;;;;;5093765;28;20101;-96
2022/12/03 14:44:46;;;;;;;10.32;9.60;;;;;;;;;;5093518;28;20040;-95
2022/12/03 14:47:13;;;;;;;14.07;13.07;;;;;;;;;;5092666;28;20093;-96
2022/12/03 14:49:41;;;;;;;11.88;11.07;;;;;;;;;;5071679;28;20564;-95
2022/12/03 14:52:08;;;;;;;10.35;9.55;;;;;;;;;;5090731;28;20731;-96
2022/12/03 14:54:35;;;;;;;9.95;9.25;;;;;;;;;;5091621;28;20048;-96
2022/12/03 14:57:01;;;;;;;9.95;9.25;;;;;;;;;;5091191;28;20048;-96
2022/12/03 14:59:28;;;;;;;11.40;10.52;;;;;;;;;;5089420;28;20048;-96
2022/12/03 15:01:55;;;;;;;8.63;8.10;;;;;;;;;;5090897;28;20512;-96
2022/12/03 15:04:21;;;;;;;11.35;10.55;;;;;;;;;;5090474;28;20484;-95
2022/12/03 15:06:49;;;;;;;15.18;5.97;;;;;;;;;;5090950;28;20388;-96
2022/12/03 15:09:16;;;;;;;13.00;12.10;;;;;;;;;;5091453;28;20049;-96
2022/12/03 15:11:43;;;;;;;12.57;11.55;;;;;;;;;;5079354;28;20048;-95
2022/12/03 15:14:09;;;;;;;7.47;7.07;;;;;;;;;;5090546;28;20630;-94
2022/12/03 15:16:36;;;;;;;10.13;9.30;;;;;;;;;;5091258;28;20552;-92
2022/12/03 15:19:02;;;;;;;7.65;6.95;;;;;;;;;;5091113;28;20098;-93
2022/12/03 15:21:31;;;;;;;9.73;8.88;;;;;;;;;;5090859;28;20040;-93
2022/12/03 15:23:59;;;;;;;9.45;8.85;;;;;;;;;;5090831;28;20040;-93
2022/12/03 15:26:26;;;;;;;12.50;11.48;;;;;;;;;;5077465;28;20136;-94
2022/12/03 15:28:52;;;;;;;10.43;9.82;;;;;;;;;;5076691;28;20049;-94
2022/12/03 15:31:19;;;;;;;10.45;8.75;;;;;;;;;;5073826;28;20094;-94
2022/12/03 15:33:45;;;;;;;11.98;11.32;;;;;;;;;;5056731;28;20049;-94
2022/12/03 15:36:12;;;;;;;12.32;11.50;;;;;;;;;;5057337;28;20485;-94
2022/12/03 15:38:39;;;;;;;10.50;9.80;;;;;;;;;;5056590;28;20141;-94
2022/12/03 15:41:22;;;;;;;9.35;8.63;;;;;;;;;;5057199;28;20048;-94
2022/12/03 15:43:48;;;;;;;10.98;10.25;;;;;;;;;;5057426;28;20481;-93
2022/12/03 15:46:15;;;;;;;6.90;5.80;;;;;;;;;;5056744;28;20397;-94
2022/12/03 15:48:42;;;;;;;15.57;14.60;;;;;;;;;;5056563;28;20060;-94
2022/12/03 15:51:08;;;;;;;13.25;12.25;;;;;;;;;;5056881;28;20111;-94
2022/12/03 15:53:35;;;;;;;10.18;9.60;;;;;;;;;;5057236;28;20048;-93
2022/12/03 15:56:02;;;;;;;8.73;8.13;;;;;;;;;;5057062;28;20056;-94
2022/12/03 15:58:30;;;;;;;11.77;7.93;;;;;;;;;;5056344;28;20519;-91
2022/12/03 16:00:56;;;;;;;6.60;6.20;;;;;;;;;;5055975;28;20151;-96
2022/12/03 16:03:23;;;;;;;9.52;8.90;;;;;;;;;;5057591;28;20053;-96
2022/12/03 16:05:49;;;;;;;7.75;6.97;;;;;;;;;;5057649;28;20052;-94
2022/12/03 16:08:16;;;;;;;10.25;9.68;;;;;;;;;;5056002;28;20488;-92
2022/12/03 16:10:43;;;;;;;9.02;8.45;;;;;;;;;;5055522;28;20094;-93
2022/12/03 16:13:09;;;;;;;11.20;10.20;;;;;;;;;;5055641;28;20057;-93
2022/12/03 16:15:37;;;;;;;9.38;8.82;;;;;;;;;;5055839;28;20095;-92
2022/12/03 16:18:04;;;;;;;12.45;11.73;;;;;;;;;;5055805;28;20049;-92
2022/12/03 16:20:30;;;;;;;9.60;9.15;;;;;;;;;;5055540;28;20062;-92
2022/12/03 16:22:57;;;;;;;9.23;8.52;;;;;;;;;;5055501;28;20052;-93
2022/12/03 16:25:23;;;;;;;12.25;10.13;;;;;;;;;;5055826;28;20049;-93
2022/12/03 16:27:50;;;;;;;9.48;8.77;;;;;;;;;;5055258;28;20056;-92
2022/12/03 16:30:17;;;;;;;11.13;10.45;;;;;;;;;;5054898;28;20076;-94
2022/12/03 16:32:45;;;;;;;12.32;9.35;;;;;;;;;;5055167;28;20140;-94
2022/12/03 16:35:11;;;;;;;13.82;12.57;;;;;;;;;;5055069;28;20045;-92
2022/12/03 16:37:38;;;;;;;8.50;7.63;;;;;;;;;;5054576;28;20052;-93
2022/12/03 16:40:05;;;;;;;8.02;6.68;;;;;;;;;;5055577;28;20049;-94
2022/12/03 16:42:31;;;;;;;8.10;7.53;;;;;;;;;;5058036;28;20049;-94
2022/12/03 16:45:21;;;;;;;9.45;7.30;;;;;;;;;;5038474;28;20145;-93
2022/12/03 16:47:49;;;;;;;12.65;11.65;;;;;;;;;;5035215;28;20056;-94
2022/12/03 16:50:16;;;;;;;9.07;8.45;;;;;;;;;;5035793;28;20485;-93
2022/12/03 16:52:42;;;;;;;10.82;10.07;;;;;;;;;;5035598;28;20080;-92
2022/12/03 16:55:09;;;;;;;10.30;9.60;;;;;;;;;;5036745;28;20115;-94
2022/12/03 16:57:36;;;;;;;10.13;9.05;;;;;;;;;;5036046;28;20056;-93
2022/12/03 17:00:03;;;;;;;11.98;8.25;;;;;;;;;;5039346;28;20045;-94
2022/12/03 17:02:29;;;;;;;8.93;6.45;;;;;;;;;;5058340;28;20542;-94
2022/12/03 17:04:58;;;;;;;11.07;10.27;;;;;;;;;;5069631;28;20492;-93
2022/12/03 17:07:24;;;;;;;8.70;8.15;;;;;;;;;;5073449;28;20052;-91
2022/12/03 17:09:51;;;;;;;11.02;10.32;;;;;;;;;;5074364;28;20108;-93
2022/12/03 17:12:17;;;;;;;8.18;7.55;;;;;;;;;;5073966;28;20053;-91
2022/12/03 17:14:44;;;;;;;8.93;8.25;;;;;;;;;;5074333;28;20060;-92
2022/12/03 17:17:10;;;;;;;7.65;7.05;;;;;;;;;;5070702;28;20049;-93
2022/12/03 17:19:37;;;;;;;7.65;7.22;;;;;;;;;;5056584;28;20037;-93
2022/12/03 17:22:05;;;;;;;7.88;7.43;;;;;;;;;;5052387;28;20084;-94
2022/12/03 17:24:32;;;;;;;8.23;7.60;;;;;;;;;;5064726;28;20139;-93
2022/12/03 17:26:58;;;;;;;8.38;7.95;;;;;;;;;;5064570;28;20045;-91
2022/12/03 17:29:25;;;;;;;9.07;7.43;;;;;;;;;;5066592;28;20053;-95
2022/12/03 17:31:52;;;;;;;8.45;8.05;;;;;;;;;;5071153;28;20140;-95
2022/12/03 17:34:18;;;;;;;9.48;8.73;;;;;;;;;;5072483;28;20104;-95
2022/12/03 17:36:45;;;;;;;7.55;6.72;;;;;;;;;;5071335;28;20045;-95
2022/12/03 17:39:13;;;;;;;8.25;7.13;;;;;;;;;;5065550;28;20073;-94
2022/12/03 17:41:40;;;;;;;10.77;10.02;;;;;;;;;;5047559;28;20049;-95
2022/12/03 17:44:07;;;;;;;9.48;8.70;;;;;;;;;;5046473;28;20041;-94
2022/12/03 17:46:33;;;;;;;10.93;9.35;;;;;;;;;;5056327;28;20074;-90
2022/12/03 17:49:00;;;;;;;7.97;7.40;;;;;;;;;;5055163;28;20102;-93
2022/12/03 17:51:26;;;;;;;8.10;7.55;;;;;;;;;;5054379;28;20052;-94
2022/12/03 17:53:53;;;;;;;5.53;5.03;;;;;;;;;;5056323;28;20400;-95
2022/12/03 17:56:21;;;;;;;7.75;7.32;;;;;;;;;;5057892;28;20048;-94
2022/12/03 17:58:48;;;;;;;7.90;6.03;;;;;;;;;;5059648;28;20135;-95
2022/12/03 18:01:14;;;;;;;9.80;9.30;;;;;;;;;;5057292;28;20127;-94
2022/12/03 18:03:41;;;;;;;8.30;7.90;;;;;;;;;;5057201;28;20056;-94
2022/12/03 18:06:08;;;;;;;8.88;8.27;;;;;;;;;;5054473;28;20049;-95
2022/12/03 18:08:34;;;;;;;9.35;8.57;;;;;;;;;;5054226;28;20056;-95
2022/12/03 18:11:01;;;;;;;11.65;10.57;;;;;;;;;;5054191;28;20485;-95
2022/12/03 18:13:29;;;;;;;8.27;7.65;;;;;;;;;;5054455;28;20075;-95
2022/12/03 18:15:56;;;;;;;11.55;10.90;;;;;;;;;;5056066;28;20480;-95
2022/12/03 18:18:22;;;;;;;5.47;5.05;;;;;;;;;;5059421;28;20094;-95
2022/12/03 18:20:49;;;;;;;8.38;7.68;;;;;;;;;;5060174;28;20049;-95
2022/12/03 18:23:15;;;;;;;7.10;6.40;;;;;;;;;;5059239;28;20053;-95
2022/12/03 18:25:42;;;;;;;9.52;8.75;;;;;;;;;;5054149;28;20049;-94
2022/12/03 18:28:08;;;;;;;10.43;9.63;;;;;;;;;;5053993;28;20056;-96
2022/12/03 18:30:36;;;;;;;9.50;8.65;;;;;;;;;;5053904;28;20053;-94
2022/12/03 18:33:03;;;;;;;13.27;8.68;;;;;;;;;;5053425;28;20095;-94
2022/12/03 18:35:30;;;;;;;10.70;9.98;;;;;;;;;;5053499;28;20056;-94
2022/12/03 18:37:56;;;;;;;12.40;11.48;;;;;;;;;;5054135;28;20053;-94
2022/12/03 18:40:25;;;;;;;11.43;10.55;;;;;;;;;;5053709;28;20132;-94
2022/12/03 18:42:52;;;;;;;10.48;9.52;;;;;;;;;;5053377;28;20151;-94
2022/12/03 18:45:19;;;;;;;11.32;10.63;;;;;;;;;;5053159;28;20052;-94
2022/12/03 18:47:47;;;;;;;13.68;12.68;;;;;;;;;;5053082;28;20095;-95
2022/12/03 18:50:14;;;;;;;15.10;13.93;;;;;;;;;;5053540;28;20542;-94
2022/12/03 18:52:40;;;;;;;10.18;7.53;;;;;;;;;;5053545;28;20385;-94
2022/12/03 18:55:07;;;;;;;11.80;10.77;;;;;;;;;;5053512;28;20048;-94
2022/12/03 18:57:34;;;;;;;13.45;12.32;;;;;;;;;;5053353;28;20115;-95
2022/12/03 19:00:01;;;;;;;12.68;11.68;;;;;;;;;;5048265;28;20144;-95
2022/12/03 19:02:27;;;;;;;16.98;15.52;;;;;;;;;;5037159;28;20052;-94
2022/12/03 19:04:55;;;;;;;10.30;9.65;;;;;;;;;;5036711;28;20049;-95
2022/12/03 19:07:22;;;;;;;11.65;10.75;;;;;;;;;;5037863;28;20049;-94
2022/12/03 19:09:48;;;;;;;16.08;14.40;;;;;;;;;;5037562;28;20452;-94
2022/12/03 19:12:15;;;;;;;9.85;9.18;;;;;;;;;;5039480;28;20050;-96
2022/12/03 19:14:45;;;;;;;15.85;14.55;;;;;;;;;;5060452;28;20053;-95
2022/12/03 19:17:11;;;;;;;13.38;12.57;;;;;;;;;;5062538;28;20073;-96
2022/12/03 19:19:50;;;;;;;15.10;13.77;;;;;;;;;;5061234;28;20045;-96
2022/12/03 19:22:18;;;;;;;17.88;10.93;;;;;;;;;;5058177;28;20114;-95
2022/12/03 19:24:45;;;;;;;14.13;13.18;;;;;;;;;;5059410;28;20053;-95
2022/12/03 19:27:11;;;;;;;10.65;9.70;;;;;;;;;;5058794;28;20400;-96
2022/12/03 19:29:38;;;;;;;13.90;12.75;;;;;;;;;;5045157;28;20053;-95
2022/12/03 19:32:05;;;;;;;15.00;13.88;;;;;;;;;;5040832;28;20049;-95
2022/12/03 19:34:32;;;;;;;11.75;10.23;;;;;;;;;;5046627;28;20049;-95
2022/12/03 19:36:58;;;;;;;8.00;7.50;;;;;;;;;;5057094;28;20055;-96
2022/12/03 19:39:26;;;;;;;9.63;8.93;;;;;;;;;;5058498;28;20049;-96
2022/12/03 19:41:53;;;;;;;8.60;7.80;;;;;;;;;;5058651;28;20060;-95
2022/12/03 19:44:20;;;;;;;13.40;12.48;;;;;;;;;;5060516;28;20063;-95
2022/12/03 19:46:49;;;;;;;7.13;6.68;;;;;;;;;;5061208;28;20408;-96
2022/12/03 19:49:17;;;;;;;10.05;9.25;;;;;;;;;;5061021;28;20045;-96
2022/12/03 19:51:44;;;;;;;12.85;11.73;;;;;;;;;;5058595;28;20065;-96
2022/12/03 19:54:11;;;;;;;12.48;11.52;;;;;;;;;;5053401;28;20045;-95
2022/12/03 19:56:39;;;;;;;10.18;9.48;;;;;;;;;;5060818;28;20045;-95
2022/12/03 19:59:06;;;;;;;14.05;12.95;;;;;;;;;;5064631;28;20053;-95
2022/12/03 20:01:34;;;;;;;12.77;11.55;;;;;;;;;;5065359;28;20083;-95
2022/12/03 20:04:01;;;;;;;15.02;13.52;;;;;;;;;;5061833;28;20045;-95
2022/12/03 20:06:29;;;;;;;12.90;11.90;;;;;;;;;;5061721;28;20056;-95
2022/12/03 20:08:56;;;;;;;13.30;12.38;;;;;;;;;;5062148;28;20041;-96
2022/12/03 20:11:23;;;;;;;10.10;9.48;;;;;;;;;;5060216;28;20049;-91
2022/12/03 20:13:53;;;;;;;14.52;8.63;;;;;;;;;;5055423;28;20049;-91
2022/12/03 20:16:20;;;;;;;10.38;9.63;;;;;;;;;;5054914;28;20053;-92
2022/12/03 20:18:47;;;;;;;7.00;6.43;;;;;;;;;;5055308;28;20443;-94
2022/12/03 20:21:14;;;;;;;11.43;10.60;;;;;;;;;;5055905;28;20057;-93
2022/12/03 20:23:41;;;;;;;10.85;9.98;;;;;;;;;;5055498;28;20053;-94
2022/12/03 20:26:08;;;;;;;12.13;11.30;;;;;;;;;;5056075;28;20044;-95
2022/12/03 20:28:35;;;;;;;12.70;11.57;;;;;;;;;;5057492;28;20511;-91
2022/12/03 20:31:06;;;;;;;6.18;5.57;;;;;;;;;;5057204;28;20384;-94
2022/12/03 20:33:32;;;;;;;10.80;10.00;;;;;;;;;;5056765;28;20059;-94
2022/12/03 20:35:59;;;;;;;8.35;7.75;;;;;;;;;;5056115;28;20049;-95
2022/12/03 20:38:26;;;;;;;11.73;10.95;;;;;;;;;;5055642;28;20463;-95
2022/12/03 20:40:52;;;;;;;15.10;14.07;;;;;;;;;;5055999;28;20099;-94
2022/12/03 20:43:19;;;;;;;10.00;9.20;;;;;;;;;;5057088;28;20063;-95
2022/12/03 20:45:46;;;;;;;9.77;9.18;;;;;;;;;;5055753;28;20474;-94
2022/12/03 20:48:14;;;;;;;14.35;13.32;;;;;;;;;;5055833;28;20056;-95
2022/12/03 20:50:41;;;;;;;14.82;13.43;;;;;;;;;;5055602;28;20423;-94
2022/12/03 20:53:07;;;;;;;13.90;13.10;;;;;;;;;;5055648;28;20056;-94
2022/12/03 20:55:34;;;;;;;13.77;12.40;;;;;;;;;;5055192;28;20060;-94
2022/12/03 20:58:00;;;;;;;8.35;7.57;;;;;;;;;;5055134;28;20048;-94
2022/12/03 21:00:27;;;;;;;11.82;11.13;;;;;;;;;;5054655;28;20102;-95
2022/12/03 21:02:57;;;;;;;14.55;13.13;;;;;;;;;;5054959;28;20056;-94
2022/12/03 21:05:25;;;;;;;13.52;12.48;;;;;;;;;;5055653;28;20049;-95
2022/12/03 21:07:53;;;;;;;13.60;12.65;;;;;;;;;;5055352;28;20564;-95
2022/12/03 21:10:43;;;;;;;12.88;11.73;;;;;;;;;;5056830;28;20158;-96
2022/12/03 21:13:10;;;;;;;14.27;13.07;;;;;;;;;;5057927;28;20056;-95
2022/12/03 21:15:37;;;;;;;13.35;12.35;;;;;;;;;;5056556;28;20045;-95
2022/12/03 21:18:04;;;;;;;11.32;10.27;;;;;;;;;;5056411;28;20304;-95
2022/12/03 21:20:32;;;;;;;11.85;10.75;;;;;;;;;;5058681;28;20052;-96
2022/12/03 21:22:58;;;;;;;13.02;12.02;;;;;;;;;;5055543;28;20064;-95
2022/12/03 21:25:25;;;;;;;13.93;13.00;;;;;;;;;;5054791;28;20488;-96
2022/12/03 21:27:53;;;;;;;12.98;11.27;;;;;;;;;;5054626;28;20055;-95
2022/12/03 21:30:20;;;;;;;13.55;12.30;;;;;;;;;;5055378;28;20059;-94
2022/12/03 21:32:46;;;;;;;11.45;10.45;;;;;;;;;;5055565;28;20056;-95
2022/12/03 21:35:13;;;;;;;9.25;8.65;;;;;;;;;;5055800;28;20053;-94
2022/12/03 21:37:41;;;;;;;11.90;10.80;;;;;;;;;;5055602;28;20045;-95
2022/12/03 21:40:08;;;;;;;14.57;8.38;;;;;;;;;;5055394;28;20078;-95
2022/12/03 21:42:35;;;;;;;10.30;9.55;;;;;;;;;;5055722;28;20049;-95
2022/12/03 21:45:01;;;;;;;15.05;10.43;;;;;;;;;;5054859;28;20053;-94
2022/12/03 21:47:28;;;;;;;9.98;9.25;;;;;;;;;;5054864;28;20048;-95
2022/12/03 21:49:54;;;;;;;8.10;7.40;;;;;;;;;;5059592;28;20083;-96
2022/12/03 21:52:21;;;;;;;9.55;8.70;;;;;;;;;;5065591;28;20049;-95
2022/12/03 21:54:51;;;;;;;10.18;8.88;;;;;;;;;;5054528;28;20082;-95
2022/12/03 21:57:18;;;;;;;10.60;7.82;;;;;;;;;;5062132;28;20055;-96
2022/12/03 21:59:45;;;;;;;14.63;13.52;;;;;;;;;;5055143;28;20056;-95
2022/12/03 22:02:12;;;;;;;13.73;12.98;;;;;;;;;;5055146;28;20040;-95
2022/12/03 22:04:38;;;;;;;8.50;7.90;;;;;;;;;;5054323;28;20060;-95
2022/12/03 22:07:05;;;;;;;8.10;7.53;;;;;;;;;;5054569;28;20057;-94
2022/12/03 22:09:32;;;;;;;14.63;9.70;;;;;;;;;;5055140;28;20095;-96
2022/12/03 22:12:00;;;;;;;8.63;8.02;;;;;;;;;;5056082;28;20491;-95
2022/12/03 22:14:27;;;;;;;14.10;12.90;;;;;;;;;;5054186;28;20132;-95
2022/12/03 22:16:53;;;;;;;10.82;10.15;;;;;;;;;;5061703;28;20045;-96
2022/12/03 22:19:21;;;;;;;11.07;10.23;;;;;;;;;;5067497;28;20049;-96
2022/12/03 22:21:51;;;;;;;7.53;6.85;;;;;;;;;;5066632;28;20086;-95
2022/12/03 22:24:18;;;;;;;8.70;8.10;;;;;;;;;;5066436;28;20041;-96
2022/12/03 22:26:45;;;;;;;8.55;7.85;;;;;;;;;;5066460;28;20041;-96
2022/12/03 22:29:13;;;;;;;8.13;7.38;;;;;;;;;;5073607;28;20049;-93
2022/12/03 22:31:40;;;;;;;9.00;8.40;;;;;;;;;;5058132;28;20029;-93
2022/12/03 22:34:07;;;;;;;9.25;8.45;;;;;;;;;;5072676;28;20101;-94
2022/12/03 22:36:33;;;;;;;10.77;7.53;;;;;;;;;;5081800;28;20036;-96
2022/12/03 22:39:00;;;;;;;8.00;7.22;;;;;;;;;;5074903;28;20473;-94
2022/12/03 22:41:26;;;;;;;6.80;6.30;;;;;;;;;;5064876;28;20053;-95
2022/12/03 22:43:53;;;;;;;7.35;6.85;;;;;;;;;;5059977;28;20048;-95
2022/12/03 22:46:21;;;;;;;9.10;8.40;;;;;;;;;;5058173;28;20057;-95
2022/12/03 22:48:48;;;;;;;4.35;4.05;;;;;;;;;;5059346;28;20408;-96
2022/12/03 22:51:16;;;;;;;8.98;8.18;;;;;;;;;;5039371;28;20109;-94
2022/12/03 22:53:42;;;;;;;9.32;8.85;;;;;;;;;;5037149;28;20088;-94
2022/12/03 22:56:09;;;;;;;4.60;4.28;;;;;;;;;;5037045;28;20045;-94
2022/12/03 22:58:36;;;;;;;9.93;9.15;;;;;;;;;;5037098;28;20053;-94
2022/12/03 23:01:03;;;;;;;10.05;9.48;;;;;;;;;;5036907;28;20103;-94
2022/12/03 23:03:31;;;;;;;6.65;6.35;;;;;;;;;;5037237;28;20057;-94
2022/12/03 23:05:57;;;;;;;11.23;7.75;;;;;;;;;;5037172;28;20455;-95
2022/12/03 23:08:24;;;;;;;7.25;6.75;;;;;;;;;;5036915;28;20045;-95
2022/12/03 23:10:52;;;;;;;7.93;6.20;;;;;;;;;;5037243;28;20424;-94
2022/12/03 23:13:19;;;;;;;10.98;10.00;;;;;;;;;;5036841;28;20056;-95
2022/12/03 23:15:47;;;;;;;13.55;12.20;;;;;;;;;;5036674;28;20083;-94
2022/12/03 23:18:13;;;;;;;9.45;8.57;;;;;;;;;;5037033;28;20456;-94
2022/12/03 23:20:45;;;;;;;9.88;9.15;;;;;;;;;;5037073;28;20096;-95
2022/12/03 23:23:12;;;;;;;11.75;10.18;;;;;;;;;;5037053;28;20099;-95
2022/12/03 23:25:39;;;;;;;9.75;8.95;;;;;;;;;;5036874;28;20053;-94
2022/12/03 23:28:06;;;;;;;11.32;10.23;;;;;;;;;;5036512;28;20056;-94
2022/12/03 23:30:34;;;;;;;11.57;10.40;;;;;;;;;;5036474;28;20144;-93
2022/12/03 23:33:01;;;;;;;13.55;12.52;;;;;;;;;;5036771;28;20049;-93
2022/12/03 23:35:27;;;;;;;9.65;9.00;;;;;;;;;;5037034;28;20049;-95
2022/12/03 23:37:55;;;;;;;12.82;11.80;;;;;;;;;;5036663;28;20045;-94
2022/12/03 23:40:22;;;;;;;10.65;9.68;;;;;;;;;;5036707;28;20049;-95
2022/12/03 23:42:49;;;;;;;14.63;13.63;;;;;;;;;;5036427;28;20136;-94
2022/12/03 23:45:15;;;;;;;11.07;8.88;;;;;;;;;;5036285;28;20061;-94
2022/12/03 23:47:42;;;;;;;8.48;7.72;;;;;;;;;;5036169;28;20046;-96
2022/12/03 23:50:09;;;;;;;14.98;13.98;;;;;;;;;;5036999;28;20053;-96
2022/12/03 23:52:36;;;;;;;11.52;10.65;;;;;;;;;;5036611;28;20046;-96
2022/12/03 23:55:04;;;;;;;10.85;10.05;;;;;;;;;;5037268;28;20555;-96
2022/12/03 23:57:31;;;;;;;11.30;10.40;;;;;;;;;;5040743;28;20045;-94
2022/12/03 23:59:57;;;;;;;11.35;10.55;;;;;;;;;;5056115;28;20446;-94
